sensor_id;sensor_type;location;lat;lon;timestamp;P1;durP1;ratioP1;P2;durP2;ratioP2
23586;SDS011;11971;51.148;4.104;2022-07-24T04:05:49;36.35;;;21.38;;
23586;SDS011;11971;51.148;4.104;2022-07-24T04:08:17;32.38;;;21.25;;
23586;SDS011;11971;51.148;4.104;2022-07-24T04:10:58;35.05;;;22.48;;
23586;SDS011;11971;51.148;4.104;2022-07-24T04:24:24;33.42;;;21.65;;
23586;SDS011;11971;51.148;4.104;2022-07-24T04:26:58;32.20;;;20.80;;
23586;SDS011;11971;51.148;4.104;2022-07-24T04:29:40;32.10;;;21.75;;
23586;SDS011;11971;51.148;4.104;2022-07-24T04:32:25;31.40;;;20.90;;
23586;SDS011;11971;51.148;4.104;2022-07-24T04:35:12;33.85;;;20.83;;
23586;SDS011;11971;51.148;4.104;2022-07-24T04:40:34;32.25;;;18.55;;
23586;SDS011;11971;51.148;4.104;2022-07-24T04:43:01;27.48;;;19.48;;
23586;SDS011;11971;51.148;4.104;2022-07-24T04:45:28;32.35;;;19.17;;
23586;SDS011;11971;51.148;4.104;2022-07-24T04:47:56;29.70;;;18.08;;
23586;SDS011;11971;51.148;4.104;2022-07-24T04:50:23;29.20;;;18.88;;
23586;SDS011;11971;51.148;4.104;2022-07-24T04:52:50;28.67;;;18.38;;
23586;SDS011;11971;51.148;4.104;2022-07-24T04:55:18;27.48;;;17.90;;
23586;SDS011;11971;51.148;4.104;2022-07-24T04:57:47;30.35;;;18.63;;
23586;SDS011;11971;51.148;4.104;2022-07-24T05:00:14;25.80;;;17.55;;
23586;SDS011;11971;51.148;4.104;2022-07-24T05:02:42;27.98;;;18.00;;
23586;SDS011;11971;51.148;4.104;2022-07-24T05:05:09;28.98;;;17.15;;
23586;SDS011;11971;51.148;4.104;2022-07-24T05:07:37;26.67;;;17.33;;
23586;SDS011;11971;51.148;4.104;2022-07-24T05:10:04;22.23;;;14.98;;
23586;SDS011;11971;51.148;4.104;2022-07-24T05:12:32;23.05;;;14.80;;
23586;SDS011;11971;51.148;4.104;2022-07-24T05:15:00;20.05;;;14.55;;
23586;SDS011;11971;51.148;4.104;2022-07-24T05:17:28;20.83;;;14.80;;
23586;SDS011;11971;51.148;4.104;2022-07-24T05:19:55;22.35;;;15.32;;
23586;SDS011;11971;51.148;4.104;2022-07-24T05:22:22;22.98;;;15.32;;
23586;SDS011;11971;51.148;4.104;2022-07-24T05:24:49;22.75;;;14.73;;
23586;SDS011;11971;51.148;4.104;2022-07-24T05:27:17;22.50;;;14.98;;
23586;SDS011;11971;51.148;4.104;2022-07-24T05:29:44;29.83;;;15.02;;
23586;SDS011;11971;51.148;4.104;2022-07-24T05:32:13;25.20;;;15.38;;
23586;SDS011;11971;51.148;4.104;2022-07-24T05:34:41;24.95;;;15.98;;
23586;SDS011;11971;51.148;4.104;2022-07-24T05:37:10;25.20;;;15.13;;
23586;SDS011;11971;51.148;4.104;2022-07-24T05:39:38;23.63;;;16.02;;
23586;SDS011;11971;51.148;4.104;2022-07-24T05:42:05;22.52;;;14.82;;
23586;SDS011;11971;51.148;4.104;2022-07-24T05:44:32;19.15;;;13.80;;
23586;SDS011;11971;51.148;4.104;2022-07-24T05:47:00;20.48;;;13.38;;
23586;SDS011;11971;51.148;4.104;2022-07-24T05:49:28;21.55;;;13.07;;
23586;SDS011;11971;51.148;4.104;2022-07-24T05:51:56;23.65;;;13.35;;
23586;SDS011;11971;51.148;4.104;2022-07-24T05:54:23;15.27;;;11.48;;
23586;SDS011;11971;51.148;4.104;2022-07-24T05:56:50;19.38;;;11.55;;
23586;SDS011;11971;51.148;4.104;2022-07-24T05:59:17;17.30;;;12.50;;
23586;SDS011;11971;51.148;4.104;2022-07-24T06:01:45;15.93;;;11.93;;
23586;SDS011;11971;51.148;4.104;2022-07-24T06:04:12;20.92;;;11.30;;
23586;SDS011;11971;51.148;4.104;2022-07-24T06:06:41;17.75;;;11.18;;
23586;SDS011;11971;51.148;4.104;2022-07-24T06:09:08;13.75;;;9.73;;
23586;SDS011;11971;51.148;4.104;2022-07-24T06:11:35;16.35;;;9.35;;
23586;SDS011;11971;51.148;4.104;2022-07-24T06:14:02;14.82;;;9.57;;
23586;SDS011;11971;51.148;4.104;2022-07-24T06:16:30;15.55;;;9.45;;
23586;SDS011;11971;51.148;4.104;2022-07-24T06:18:57;15.25;;;9.63;;
23586;SDS011;11971;51.148;4.104;2022-07-24T06:21:24;14.27;;;8.95;;
23586;SDS011;11971;51.148;4.104;2022-07-24T06:23:53;13.10;;;9.55;;
23586;SDS011;11971;51.148;4.104;2022-07-24T06:26:20;12.43;;;9.23;;
23586;SDS011;11971;51.148;4.104;2022-07-24T06:28:47;13.45;;;8.60;;
23586;SDS011;11971;51.148;4.104;2022-07-24T06:31:15;13.15;;;8.35;;
23586;SDS011;11971;51.148;4.104;2022-07-24T06:33:43;13.03;;;8.27;;
23586;SDS011;11971;51.148;4.104;2022-07-24T06:36:10;15.15;;;9.18;;
23586;SDS011;11971;51.148;4.104;2022-07-24T06:38:38;14.15;;;8.40;;
23586;SDS011;11971;51.148;4.104;2022-07-24T06:41:06;11.95;;;7.72;;
23586;SDS011;11971;51.148;4.104;2022-07-24T06:43:34;10.02;;;7.05;;
23586;SDS011;11971;51.148;4.104;2022-07-24T06:46:01;11.93;;;7.20;;
23586;SDS011;11971;51.148;4.104;2022-07-24T06:48:29;9.88;;;6.97;;
23586;SDS011;11971;51.148;4.104;2022-07-24T06:50:56;10.17;;;7.00;;
23586;SDS011;11971;51.148;4.104;2022-07-24T06:53:24;9.27;;;6.78;;
23586;SDS011;11971;51.148;4.104;2022-07-24T06:55:51;9.15;;;6.88;;
23586;SDS011;11971;51.148;4.104;2022-07-24T06:58:21;9.95;;;6.65;;
23586;SDS011;11971;51.148;4.104;2022-07-24T07:00:49;12.02;;;7.22;;
23586;SDS011;11971;51.148;4.104;2022-07-24T07:03:16;10.57;;;6.90;;
23586;SDS011;11971;51.148;4.104;2022-07-24T07:05:44;8.05;;;6.00;;
23586;SDS011;11971;51.148;4.104;2022-07-24T07:08:11;10.52;;;6.35;;
23586;SDS011;11971;51.148;4.104;2022-07-24T07:10:38;8.80;;;6.32;;
23586;SDS011;11971;51.148;4.104;2022-07-24T07:13:06;14.65;;;6.40;;
23586;SDS011;11971;51.148;4.104;2022-07-24T07:15:34;11.20;;;5.22;;
23586;SDS011;11971;51.148;4.104;2022-07-24T07:18:02;8.63;;;5.30;;
23586;SDS011;11971;51.148;4.104;2022-07-24T07:20:29;8.45;;;5.70;;
23586;SDS011;11971;51.148;4.104;2022-07-24T07:22:56;9.60;;;5.68;;
23586;SDS011;11971;51.148;4.104;2022-07-24T07:25:24;7.88;;;5.18;;
23586;SDS011;11971;51.148;4.104;2022-07-24T07:27:51;7.63;;;5.05;;
23586;SDS011;11971;51.148;4.104;2022-07-24T07:30:18;8.73;;;5.05;;
23586;SDS011;11971;51.148;4.104;2022-07-24T07:32:48;7.88;;;4.80;;
23586;SDS011;11971;51.148;4.104;2022-07-24T07:35:15;5.38;;;4.20;;
23586;SDS011;11971;51.148;4.104;2022-07-24T07:37:44;7.30;;;4.53;;
23586;SDS011;11971;51.148;4.104;2022-07-24T07:42:39;7.55;;;4.20;;
23586;SDS011;11971;51.148;4.104;2022-07-24T07:45:06;5.97;;;4.00;;
23586;SDS011;11971;51.148;4.104;2022-07-24T07:47:35;6.85;;;4.18;;
23586;SDS011;11971;51.148;4.104;2022-07-24T07:50:04;8.40;;;4.53;;
23586;SDS011;11971;51.148;4.104;2022-07-24T07:52:32;4.95;;;3.85;;
23586;SDS011;11971;51.148;4.104;2022-07-24T07:54:59;6.35;;;3.80;;
23586;SDS011;11971;51.148;4.104;2022-07-24T07:57:26;5.70;;;3.53;;
23586;SDS011;11971;51.148;4.104;2022-07-24T07:59:53;4.65;;;3.65;;
23586;SDS011;11971;51.148;4.104;2022-07-24T08:02:21;5.18;;;3.40;;
23586;SDS011;11971;51.148;4.104;2022-07-24T08:04:48;7.28;;;3.38;;
23586;SDS011;11971;51.148;4.104;2022-07-24T08:07:17;6.47;;;3.10;;
23586;SDS011;11971;51.148;4.104;2022-07-24T08:09:44;7.15;;;3.42;;
23586;SDS011;11971;51.148;4.104;2022-07-24T08:12:11;7.78;;;3.47;;
23586;SDS011;11971;51.148;4.104;2022-07-24T08:14:39;4.38;;;3.00;;
23586;SDS011;11971;51.148;4.104;2022-07-24T08:17:06;5.05;;;3.13;;
23586;SDS011;11971;51.148;4.104;2022-07-24T08:19:33;4.05;;;3.13;;
23586;SDS011;11971;51.148;4.104;2022-07-24T08:22:00;4.28;;;3.05;;
23586;SDS011;11971;51.148;4.104;2022-07-24T08:24:30;5.10;;;2.80;;
23586;SDS011;11971;51.148;4.104;2022-07-24T08:29:25;5.10;;;3.00;;
23586;SDS011;11971;51.148;4.104;2022-07-24T08:31:53;4.93;;;3.10;;
23586;SDS011;11971;51.148;4.104;2022-07-24T08:34:20;5.35;;;3.20;;
23586;SDS011;11971;51.148;4.104;2022-07-24T08:36:48;6.05;;;3.25;;
23586;SDS011;11971;51.148;4.104;2022-07-24T08:39:15;6.68;;;2.88;;
23586;SDS011;11971;51.148;4.104;2022-07-24T08:41:44;5.80;;;3.25;;
23586;SDS011;11971;51.148;4.104;2022-07-24T08:44:11;5.40;;;3.10;;
23586;SDS011;11971;51.148;4.104;2022-07-24T08:46:39;5.85;;;3.33;;
23586;SDS011;11971;51.148;4.104;2022-07-24T08:49:07;7.00;;;3.00;;
23586;SDS011;11971;51.148;4.104;2022-07-24T08:51:34;3.70;;;2.85;;
23586;SDS011;11971;51.148;4.104;2022-07-24T08:54:03;3.58;;;2.85;;
23586;SDS011;11971;51.148;4.104;2022-07-24T08:56:31;5.03;;;2.70;;
23586;SDS011;11971;51.148;4.104;2022-07-24T08:59:02;5.82;;;2.70;;
23586;SDS011;11971;51.148;4.104;2022-07-24T09:01:30;4.97;;;2.83;;
23586;SDS011;11971;51.148;4.104;2022-07-24T09:03:57;7.40;;;2.60;;
23586;SDS011;11971;51.148;4.104;2022-07-24T09:06:24;3.53;;;2.92;;
23586;SDS011;11971;51.148;4.104;2022-07-24T09:08:58;10.88;;;3.00;;
23586;SDS011;11971;51.148;4.104;2022-07-24T09:11:26;5.05;;;2.70;;
23586;SDS011;11971;51.148;4.104;2022-07-24T09:13:58;4.35;;;2.70;;
23586;SDS011;11971;51.148;4.104;2022-07-24T09:16:45;4.55;;;2.72;;
23586;SDS011;11971;51.148;4.104;2022-07-24T09:19:13;3.42;;;2.70;;
23586;SDS011;11971;51.148;4.104;2022-07-24T09:21:41;4.47;;;2.70;;
23586;SDS011;11971;51.148;4.104;2022-07-24T09:24:14;4.18;;;2.65;;
23586;SDS011;11971;51.148;4.104;2022-07-24T09:26:42;5.97;;;3.00;;
23586;SDS011;11971;51.148;4.104;2022-07-24T09:29:10;4.17;;;2.67;;
23586;SDS011;11971;51.148;4.104;2022-07-24T09:31:50;4.38;;;2.70;;
23586;SDS011;11971;51.148;4.104;2022-07-24T09:34:17;5.57;;;2.83;;
23586;SDS011;11971;51.148;4.104;2022-07-24T09:36:54;6.68;;;3.05;;
23586;SDS011;11971;51.148;4.104;2022-07-24T09:39:22;4.85;;;2.83;;
23586;SDS011;11971;51.148;4.104;2022-07-24T09:41:50;3.83;;;2.65;;
23586;SDS011;11971;51.148;4.104;2022-07-24T09:44:18;5.63;;;2.95;;
23586;SDS011;11971;51.148;4.104;2022-07-24T09:46:46;5.18;;;2.75;;
23586;SDS011;11971;51.148;4.104;2022-07-24T09:49:19;3.50;;;2.77;;
23586;SDS011;11971;51.148;4.104;2022-07-24T09:52:02;5.93;;;2.80;;
23586;SDS011;11971;51.148;4.104;2022-07-24T09:54:32;6.15;;;2.90;;
23586;SDS011;11971;51.148;4.104;2022-07-24T09:57:12;4.73;;;2.87;;
23586;SDS011;11971;51.148;4.104;2022-07-24T09:59:43;3.97;;;2.72;;
23586;SDS011;11971;51.148;4.104;2022-07-24T10:02:12;4.60;;;2.88;;
23586;SDS011;11971;51.148;4.104;2022-07-24T10:04:42;3.72;;;2.88;;
23586;SDS011;11971;51.148;4.104;2022-07-24T10:07:10;6.03;;;3.00;;
23586;SDS011;11971;51.148;4.104;2022-07-24T10:09:40;4.93;;;2.90;;
23586;SDS011;11971;51.148;4.104;2022-07-24T10:12:11;5.05;;;3.03;;
23586;SDS011;11971;51.148;4.104;2022-07-24T10:14:39;5.00;;;2.70;;
23586;SDS011;11971;51.148;4.104;2022-07-24T10:17:10;5.20;;;2.92;;
23586;SDS011;11971;51.148;4.104;2022-07-24T10:19:51;4.00;;;2.90;;
23586;SDS011;11971;51.148;4.104;2022-07-24T10:22:19;4.45;;;3.00;;
23586;SDS011;11971;51.148;4.104;2022-07-24T10:24:54;5.13;;;3.10;;
23586;SDS011;11971;51.148;4.104;2022-07-24T10:27:24;5.90;;;3.25;;
23586;SDS011;11971;51.148;4.104;2022-07-24T10:29:52;4.13;;;2.70;;
23586;SDS011;11971;51.148;4.104;2022-07-24T10:32:19;5.55;;;2.78;;
23586;SDS011;11971;51.148;4.104;2022-07-24T10:34:50;4.28;;;2.63;;
23586;SDS011;11971;51.148;4.104;2022-07-24T10:37:21;4.35;;;2.65;;
23586;SDS011;11971;51.148;4.104;2022-07-24T10:40:02;3.72;;;2.45;;
23586;SDS011;11971;51.148;4.104;2022-07-24T10:42:30;9.38;;;3.10;;
23586;SDS011;11971;51.148;4.104;2022-07-24T10:45:13;6.75;;;2.97;;
23586;SDS011;11971;51.148;4.104;2022-07-24T10:47:42;3.97;;;2.80;;
23586;SDS011;11971;51.148;4.104;2022-07-24T10:50:10;4.85;;;2.40;;
23586;SDS011;11971;51.148;4.104;2022-07-24T10:52:39;5.25;;;2.60;;
23586;SDS011;11971;51.148;4.104;2022-07-24T10:55:24;3.53;;;2.42;;
23586;SDS011;11971;51.148;4.104;2022-07-24T10:57:56;3.15;;;2.30;;
23586;SDS011;11971;51.148;4.104;2022-07-24T11:00:24;4.95;;;2.53;;
23586;SDS011;11971;51.148;4.104;2022-07-24T11:02:57;6.80;;;2.60;;
23586;SDS011;11971;51.148;4.104;2022-07-24T11:05:33;3.33;;;2.50;;
23586;SDS011;11971;51.148;4.104;2022-07-24T11:10:59;6.45;;;2.58;;
23586;SDS011;11971;51.148;4.104;2022-07-24T11:16:24;6.38;;;2.50;;
23586;SDS011;11971;51.148;4.104;2022-07-24T11:21:39;4.38;;;2.50;;
23586;SDS011;11971;51.148;4.104;2022-07-24T11:24:16;8.25;;;2.70;;
23586;SDS011;11971;51.148;4.104;2022-07-24T11:26:48;3.50;;;2.53;;
23586;SDS011;11971;51.148;4.104;2022-07-24T11:29:16;3.63;;;2.40;;
23586;SDS011;11971;51.148;4.104;2022-07-24T11:31:44;4.32;;;2.88;;
23586;SDS011;11971;51.148;4.104;2022-07-24T11:34:11;3.35;;;2.40;;
23586;SDS011;11971;51.148;4.104;2022-07-24T11:36:40;3.40;;;2.60;;
23586;SDS011;11971;51.148;4.104;2022-07-24T11:39:08;6.40;;;2.60;;
23586;SDS011;11971;51.148;4.104;2022-07-24T11:41:42;3.95;;;2.80;;
23586;SDS011;11971;51.148;4.104;2022-07-24T11:44:11;6.18;;;2.53;;
23586;SDS011;11971;51.148;4.104;2022-07-24T11:46:39;4.03;;;2.60;;
23586;SDS011;11971;51.148;4.104;2022-07-24T11:49:07;7.63;;;3.00;;
23586;SDS011;11971;51.148;4.104;2022-07-24T11:51:41;11.87;;;2.57;;
23586;SDS011;11971;51.148;4.104;2022-07-24T11:54:09;5.47;;;2.50;;
23586;SDS011;11971;51.148;4.104;2022-07-24T11:56:36;4.55;;;2.30;;
23586;SDS011;11971;51.148;4.104;2022-07-24T11:59:04;4.50;;;2.10;;
23586;SDS011;11971;51.148;4.104;2022-07-24T12:01:31;2.50;;;2.30;;
23586;SDS011;11971;51.148;4.104;2022-07-24T12:03:59;3.10;;;1.98;;
23586;SDS011;11971;51.148;4.104;2022-07-24T12:06:26;2.77;;;2.47;;
23586;SDS011;11971;51.148;4.104;2022-07-24T12:08:59;6.05;;;2.33;;
23586;SDS011;11971;51.148;4.104;2022-07-24T12:11:32;3.85;;;2.47;;
23586;SDS011;11971;51.148;4.104;2022-07-24T12:16:27;4.07;;;2.13;;
23586;SDS011;11971;51.148;4.104;2022-07-24T12:21:37;2.78;;;2.00;;
23586;SDS011;11971;51.148;4.104;2022-07-24T12:24:06;3.20;;;2.10;;
23586;SDS011;11971;51.148;4.104;2022-07-24T12:26:34;3.38;;;2.13;;
23586;SDS011;11971;51.148;4.104;2022-07-24T12:29:08;4.03;;;2.17;;
23586;SDS011;11971;51.148;4.104;2022-07-24T12:31:35;4.55;;;2.22;;
23586;SDS011;11971;51.148;4.104;2022-07-24T12:34:03;2.25;;;2.05;;
23586;SDS011;11971;51.148;4.104;2022-07-24T12:36:30;7.10;;;2.37;;
23586;SDS011;11971;51.148;4.104;2022-07-24T12:38:58;3.22;;;2.28;;
23586;SDS011;11971;51.148;4.104;2022-07-24T12:41:29;3.20;;;2.03;;
23586;SDS011;11971;51.148;4.104;2022-07-24T12:46:24;4.20;;;2.42;;
23586;SDS011;11971;51.148;4.104;2022-07-24T12:48:56;3.78;;;2.38;;
23586;SDS011;11971;51.148;4.104;2022-07-24T12:51:24;2.60;;;2.22;;
23586;SDS011;11971;51.148;4.104;2022-07-24T12:53:52;3.63;;;2.30;;
23586;SDS011;11971;51.148;4.104;2022-07-24T12:56:20;6.47;;;2.40;;
23586;SDS011;11971;51.148;4.104;2022-07-24T12:59:02;4.50;;;2.83;;
23586;SDS011;11971;51.148;4.104;2022-07-24T13:01:45;3.58;;;2.28;;
23586;SDS011;11971;51.148;4.104;2022-07-24T13:04:14;5.60;;;2.67;;
23586;SDS011;11971;51.148;4.104;2022-07-24T13:06:42;7.35;;;2.40;;
23586;SDS011;11971;51.148;4.104;2022-07-24T13:09:11;5.38;;;2.55;;
23586;SDS011;11971;51.148;4.104;2022-07-24T13:11:39;2.75;;;2.40;;
23586;SDS011;11971;51.148;4.104;2022-07-24T13:14:09;4.80;;;2.45;;
23586;SDS011;11971;51.148;4.104;2022-07-24T13:16:37;4.93;;;2.90;;
23586;SDS011;11971;51.148;4.104;2022-07-24T13:19:05;4.85;;;2.67;;
23586;SDS011;11971;51.148;4.104;2022-07-24T13:21:33;6.78;;;2.72;;
23586;SDS011;11971;51.148;4.104;2022-07-24T13:24:01;5.03;;;2.53;;
23586;SDS011;11971;51.148;4.104;2022-07-24T13:26:28;4.43;;;2.80;;
23586;SDS011;11971;51.148;4.104;2022-07-24T13:28:56;5.50;;;2.83;;
23586;SDS011;11971;51.148;4.104;2022-07-24T13:31:25;5.93;;;2.53;;
23586;SDS011;11971;51.148;4.104;2022-07-24T13:33:52;3.55;;;2.60;;
23586;SDS011;11971;51.148;4.104;2022-07-24T13:36:20;4.18;;;2.40;;
23586;SDS011;11971;51.148;4.104;2022-07-24T13:38:47;4.70;;;2.80;;
23586;SDS011;11971;51.148;4.104;2022-07-24T13:41:14;6.20;;;2.70;;
23586;SDS011;11971;51.148;4.104;2022-07-24T13:43:43;5.13;;;3.03;;
23586;SDS011;11971;51.148;4.104;2022-07-24T13:46:10;7.22;;;2.67;;
23586;SDS011;11971;51.148;4.104;2022-07-24T13:48:39;4.20;;;2.65;;
23586;SDS011;11971;51.148;4.104;2022-07-24T13:53:33;6.75;;;2.90;;
23586;SDS011;11971;51.148;4.104;2022-07-24T13:56:01;3.20;;;2.90;;
23586;SDS011;11971;51.148;4.104;2022-07-24T13:58:30;4.72;;;2.80;;
23586;SDS011;11971;51.148;4.104;2022-07-24T14:00:58;4.43;;;2.55;;
23586;SDS011;11971;51.148;4.104;2022-07-24T14:03:26;4.18;;;2.88;;
23586;SDS011;11971;51.148;4.104;2022-07-24T14:05:54;3.33;;;2.47;;
23586;SDS011;11971;51.148;4.104;2022-07-24T14:08:22;6.60;;;2.80;;
23586;SDS011;11971;51.148;4.104;2022-07-24T14:10:49;4.30;;;2.83;;
23586;SDS011;11971;51.148;4.104;2022-07-24T14:13:16;5.22;;;2.92;;
23586;SDS011;11971;51.148;4.104;2022-07-24T14:15:44;6.03;;;2.92;;
23586;SDS011;11971;51.148;4.104;2022-07-24T14:18:11;4.60;;;2.88;;
23586;SDS011;11971;51.148;4.104;2022-07-24T14:20:38;4.25;;;2.83;;
23586;SDS011;11971;51.148;4.104;2022-07-24T14:23:07;6.13;;;3.17;;
23586;SDS011;11971;51.148;4.104;2022-07-24T14:25:34;6.53;;;3.38;;
23586;SDS011;11971;51.148;4.104;2022-07-24T14:28:02;4.70;;;3.30;;
23586;SDS011;11971;51.148;4.104;2022-07-24T14:30:29;5.10;;;3.17;;
23586;SDS011;11971;51.148;4.104;2022-07-24T14:32:56;6.53;;;3.10;;
23586;SDS011;11971;51.148;4.104;2022-07-24T14:35:23;5.45;;;3.38;;
23586;SDS011;11971;51.148;4.104;2022-07-24T14:37:52;4.07;;;3.20;;
23586;SDS011;11971;51.148;4.104;2022-07-24T14:40:21;3.53;;;3.20;;
23586;SDS011;11971;51.148;4.104;2022-07-24T14:45:15;4.43;;;2.85;;
23586;SDS011;11971;51.148;4.104;2022-07-24T14:47:42;7.97;;;3.40;;
23586;SDS011;11971;51.148;4.104;2022-07-24T14:50:09;4.35;;;3.22;;
23586;SDS011;11971;51.148;4.104;2022-07-24T14:52:37;3.90;;;2.95;;
23586;SDS011;11971;51.148;4.104;2022-07-24T14:55:05;4.57;;;3.00;;
23586;SDS011;11971;51.148;4.104;2022-07-24T14:57:34;4.22;;;3.00;;
23586;SDS011;11971;51.148;4.104;2022-07-24T15:00:02;3.30;;;2.70;;
23586;SDS011;11971;51.148;4.104;2022-07-24T15:02:30;4.72;;;2.90;;
23586;SDS011;11971;51.148;4.104;2022-07-24T15:04:58;3.83;;;3.00;;
23586;SDS011;11971;51.148;4.104;2022-07-24T15:07:25;6.72;;;3.10;;
23586;SDS011;11971;51.148;4.104;2022-07-24T15:09:53;7.97;;;3.30;;
23586;SDS011;11971;51.148;4.104;2022-07-24T15:12:20;4.60;;;3.30;;
23586;SDS011;11971;51.148;4.104;2022-07-24T15:14:50;5.72;;;3.20;;
23586;SDS011;11971;51.148;4.104;2022-07-24T15:17:17;7.78;;;3.47;;
23586;SDS011;11971;51.148;4.104;2022-07-24T15:19:44;5.10;;;3.22;;
23586;SDS011;11971;51.148;4.104;2022-07-24T15:22:12;4.38;;;3.10;;
23586;SDS011;11971;51.148;4.104;2022-07-24T15:24:39;6.25;;;3.20;;
23586;SDS011;11971;51.148;4.104;2022-07-24T15:27:06;4.05;;;3.03;;
23586;SDS011;11971;51.148;4.104;2022-07-24T15:29:33;6.20;;;3.08;;
23586;SDS011;11971;51.148;4.104;2022-07-24T15:32:02;3.83;;;3.25;;
23586;SDS011;11971;51.148;4.104;2022-07-24T15:34:29;5.82;;;3.40;;
23586;SDS011;11971;51.148;4.104;2022-07-24T15:36:57;3.90;;;3.08;;
23586;SDS011;11971;51.148;4.104;2022-07-24T15:39:24;5.68;;;2.95;;
23586;SDS011;11971;51.148;4.104;2022-07-24T15:41:51;5.40;;;2.90;;
23586;SDS011;11971;51.148;4.104;2022-07-24T15:44:19;7.78;;;3.58;;
23586;SDS011;11971;51.148;4.104;2022-07-24T15:46:47;5.13;;;3.20;;
23586;SDS011;11971;51.148;4.104;2022-07-24T15:49:15;6.22;;;3.38;;
23586;SDS011;11971;51.148;4.104;2022-07-24T15:51:43;5.30;;;3.30;;
23586;SDS011;11971;51.148;4.104;2022-07-24T15:54:10;6.35;;;3.78;;
23586;SDS011;11971;51.148;4.104;2022-07-24T15:56:37;5.13;;;3.60;;
23586;SDS011;11971;51.148;4.104;2022-07-24T15:59:05;6.85;;;3.58;;
23586;SDS011;11971;51.148;4.104;2022-07-24T16:01:32;6.00;;;3.30;;
23586;SDS011;11971;51.148;4.104;2022-07-24T16:04:00;6.53;;;3.58;;
23586;SDS011;11971;51.148;4.104;2022-07-24T16:06:28;6.85;;;3.55;;
23586;SDS011;11971;51.148;4.104;2022-07-24T16:08:56;8.07;;;3.60;;
23586;SDS011;11971;51.148;4.104;2022-07-24T16:11:23;7.88;;;3.50;;
23586;SDS011;11971;51.148;4.104;2022-07-24T16:13:50;5.95;;;3.42;;
23586;SDS011;11971;51.148;4.104;2022-07-24T16:16:17;7.07;;;3.38;;
23586;SDS011;11971;51.148;4.104;2022-07-24T16:21:13;7.75;;;3.97;;
23586;SDS011;11971;51.148;4.104;2022-07-24T16:23:42;5.28;;;3.40;;
23586;SDS011;11971;51.148;4.104;2022-07-24T16:26:09;5.75;;;3.80;;
23586;SDS011;11971;51.148;4.104;2022-07-24T16:28:38;4.95;;;3.35;;
23586;SDS011;11971;51.148;4.104;2022-07-24T16:31:05;5.30;;;3.55;;
23586;SDS011;11971;51.148;4.104;2022-07-24T16:33:33;4.88;;;3.60;;
23586;SDS011;11971;51.148;4.104;2022-07-24T16:36:00;6.47;;;3.75;;
23586;SDS011;11971;51.148;4.104;2022-07-24T16:38:27;8.05;;;3.38;;
23586;SDS011;11971;51.148;4.104;2022-07-24T16:40:56;11.70;;;4.18;;
23586;SDS011;11971;51.148;4.104;2022-07-24T16:43:23;5.45;;;3.42;;
23586;SDS011;11971;51.148;4.104;2022-07-24T16:45:51;4.65;;;3.38;;
23586;SDS011;11971;51.148;4.104;2022-07-24T16:48:18;9.20;;;3.65;;
23586;SDS011;11971;51.148;4.104;2022-07-24T16:50:46;4.78;;;3.53;;
23586;SDS011;11971;51.148;4.104;2022-07-24T16:53:13;6.37;;;3.57;;
23586;SDS011;11971;51.148;4.104;2022-07-24T16:58:12;4.40;;;3.58;;
23586;SDS011;11971;51.148;4.104;2022-07-24T17:00:39;4.75;;;3.30;;
23586;SDS011;11971;51.148;4.104;2022-07-24T17:03:07;6.22;;;3.63;;
23586;SDS011;11971;51.148;4.104;2022-07-24T17:05:34;4.93;;;3.65;;
23586;SDS011;11971;51.148;4.104;2022-07-24T17:08:01;4.03;;;3.50;;
23586;SDS011;11971;51.148;4.104;2022-07-24T17:10:28;4.07;;;3.53;;
23586;SDS011;11971;51.148;4.104;2022-07-24T17:12:56;12.67;;;3.67;;
23586;SDS011;11971;51.148;4.104;2022-07-24T17:15:25;6.22;;;3.60;;
23586;SDS011;11971;51.148;4.104;2022-07-24T17:17:52;3.92;;;3.50;;
23586;SDS011;11971;51.148;4.104;2022-07-24T17:20:27;5.10;;;3.50;;
23586;SDS011;11971;51.148;4.104;2022-07-24T17:22:56;7.05;;;3.55;;
23586;SDS011;11971;51.148;4.104;2022-07-24T17:25:24;7.30;;;3.58;;
23586;SDS011;11971;51.148;4.104;2022-07-24T17:27:51;5.45;;;3.60;;
23586;SDS011;11971;51.148;4.104;2022-07-24T17:30:19;7.55;;;3.63;;
23586;SDS011;11971;51.148;4.104;2022-07-24T17:32:47;8.73;;;3.70;;
23586;SDS011;11971;51.148;4.104;2022-07-24T17:35:15;6.28;;;3.70;;
23586;SDS011;11971;51.148;4.104;2022-07-24T17:37:42;6.78;;;3.78;;
23586;SDS011;11971;51.148;4.104;2022-07-24T17:40:10;7.20;;;4.00;;
23586;SDS011;11971;51.148;4.104;2022-07-24T17:42:37;6.03;;;3.67;;
23586;SDS011;11971;51.148;4.104;2022-07-24T17:45:06;6.50;;;3.65;;
23586;SDS011;11971;51.148;4.104;2022-07-24T17:47:33;7.07;;;3.67;;
23586;SDS011;11971;51.148;4.104;2022-07-24T17:50:02;6.00;;;4.03;;
23586;SDS011;11971;51.148;4.104;2022-07-24T17:52:29;6.80;;;3.92;;
23586;SDS011;11971;51.148;4.104;2022-07-24T17:54:57;5.75;;;3.67;;
23586;SDS011;11971;51.148;4.104;2022-07-24T17:57:24;6.47;;;3.70;;
23586;SDS011;11971;51.148;4.104;2022-07-24T17:59:52;5.80;;;4.18;;
23586;SDS011;11971;51.148;4.104;2022-07-24T18:02:19;6.57;;;3.95;;
23586;SDS011;11971;51.148;4.104;2022-07-24T18:04:46;4.65;;;3.88;;
23586;SDS011;11971;51.148;4.104;2022-07-24T18:07:15;6.43;;;4.00;;
23586;SDS011;11971;51.148;4.104;2022-07-24T18:09:42;8.27;;;3.97;;
23586;SDS011;11971;51.148;4.104;2022-07-24T18:12:10;7.05;;;3.80;;
23586;SDS011;11971;51.148;4.104;2022-07-24T18:14:37;8.60;;;4.10;;
23586;SDS011;11971;51.148;4.104;2022-07-24T18:17:04;9.30;;;3.88;;
23586;SDS011;11971;51.148;4.104;2022-07-24T18:19:31;7.82;;;4.20;;
23586;SDS011;11971;51.148;4.104;2022-07-24T18:22:00;12.50;;;4.03;;
23586;SDS011;11971;51.148;4.104;2022-07-24T18:24:29;6.60;;;3.75;;
23586;SDS011;11971;51.148;4.104;2022-07-24T18:26:57;6.82;;;4.35;;
23586;SDS011;11971;51.148;4.104;2022-07-24T18:29:24;6.65;;;4.20;;
23586;SDS011;11971;51.148;4.104;2022-07-24T18:31:51;6.70;;;4.53;;
23586;SDS011;11971;51.148;4.104;2022-07-24T18:34:19;5.97;;;4.05;;
23586;SDS011;11971;51.148;4.104;2022-07-24T18:36:46;8.68;;;3.83;;
23586;SDS011;11971;51.148;4.104;2022-07-24T18:39:13;7.10;;;4.10;;
23586;SDS011;11971;51.148;4.104;2022-07-24T18:41:42;5.93;;;3.88;;
23586;SDS011;11971;51.148;4.104;2022-07-24T18:44:09;7.35;;;4.60;;
23586;SDS011;11971;51.148;4.104;2022-07-24T18:46:36;4.93;;;3.95;;
23586;SDS011;11971;51.148;4.104;2022-07-24T18:49:04;7.82;;;4.03;;
23586;SDS011;11971;51.148;4.104;2022-07-24T18:51:31;6.28;;;4.13;;
23586;SDS011;11971;51.148;4.104;2022-07-24T18:53:58;10.27;;;4.43;;
23586;SDS011;11971;51.148;4.104;2022-07-24T18:56:25;7.45;;;4.32;;
23586;SDS011;11971;51.148;4.104;2022-07-24T18:58:54;8.45;;;3.92;;
23586;SDS011;11971;51.148;4.104;2022-07-24T19:03:52;5.93;;;4.20;;
23586;SDS011;11971;51.148;4.104;2022-07-24T19:06:20;5.68;;;4.00;;
23586;SDS011;11971;51.148;4.104;2022-07-24T19:08:47;5.35;;;4.10;;
23586;SDS011;11971;51.148;4.104;2022-07-24T19:11:14;6.70;;;4.30;;
23586;SDS011;11971;51.148;4.104;2022-07-24T19:13:41;5.28;;;4.35;;
23586;SDS011;11971;51.148;4.104;2022-07-24T19:16:10;7.90;;;4.15;;
23586;SDS011;11971;51.148;4.104;2022-07-24T19:18:37;10.73;;;4.65;;
23586;SDS011;11971;51.148;4.104;2022-07-24T19:21:05;5.17;;;4.00;;
23586;SDS011;11971;51.148;4.104;2022-07-24T19:23:33;5.32;;;3.95;;
23586;SDS011;11971;51.148;4.104;2022-07-24T19:26:01;6.13;;;4.43;;
23586;SDS011;11971;51.148;4.104;2022-07-24T19:28:28;6.20;;;4.40;;
23586;SDS011;11971;51.148;4.104;2022-07-24T19:30:55;6.80;;;4.32;;
23586;SDS011;11971;51.148;4.104;2022-07-24T19:33:24;5.43;;;4.43;;
23586;SDS011;11971;51.148;4.104;2022-07-24T19:35:51;6.28;;;4.28;;
23586;SDS011;11971;51.148;4.104;2022-07-24T19:38:19;9.85;;;4.60;;
23586;SDS011;11971;51.148;4.104;2022-07-24T19:40:46;6.95;;;4.50;;
23586;SDS011;11971;51.148;4.104;2022-07-24T19:43:13;5.30;;;4.47;;